Hovedside
METAR-TAF:

METAR-TAF

Lufthavner :

Nikola Tesla lufthavn

Beograd, Serbia

breddegrad: 44-49N, lengdegrad: 020-17E, høyde over havet: 96 m

Gjeldene værobservasjon

Denne rapporten ble laget for 18 minutter siden, klokken 04:30 UTC
Vind 3 kt fra Øst-nordøst
Temperatur 9°C
Luftfuktighet 93%
Trykk 1024 hPa
Sikt: 8000 m
Spredte skyer i en høyde av 2700 ft
lett regn

METAR: LYBE 220430Z 06003KT 8000 -RA SCT027 09/08 Q1024 TEMPO 5000 BR

Tid: 06:48 (04:48 UTC)

Varsel

Denne rapporten ble laget for 5 timer og 48 minutter siden, klokken 23:00 UTC
Varsel gyldig fra 22. klokken 00 UTC til 22. klokken 24 UTC
Vind 3 kt fra Nord-nordøst
Sikt 10 km eller mer
Spredte skyer i en høyde av 1500 ft
Brutte skyer i en høyde av 2700 ft
Midlertidig
fra 22. klokken 03 UTC til 22. klokken 05 UTC
Sikt: 3000 m
dis

TAF: LYBE 212300Z 2200/2224 03003KT 9999 SCT015 BKN027 TX14/2212Z TN07/2205Z TEMPO 2203/2205 3000 BR

Værobservasjoner og værvarsel for over 4000 flyplasser (METAR- og TAF-rapporter).

Tilgjengelige stasjoner er representert av de røde og gule prikkene på kartet.

Hold musepekeren over prikken for å se navnet på stasjonen.

Klikk så for å se værobservasjoner og -varsler.

For å forandre kartet kan du klikke på den grønne knappen med svart kryss for å zoome inn, på den grønne knappen med strek for å zoome ut, eller på de grønne pilene for å se tilstøtende kart.


METAR-TAF: